Time;durP1;ratioP1;P1;durP2;ratioP2;P2;SDS_P1;SDS_P2;PMS_P1;PMS_P2;Temp;Humidity;BMP_temperature;BMP_pressure;BME280_temperature;BME280_humidity;BME280_pressure;Samples;Min_cycle;Max_cycle;Signal;HPM_P1;HPM_P2
2021/05/16 00:00:40;;;;;;;7.70;6.83;;;11.60;99.90;;;;;;4937275;29;20527;-77
2021/05/16 00:03:08;;;;;;;9.13;8.33;;;11.60;99.90;;;;;;4937183;29;20531;-77
2021/05/16 00:05:36;;;;;;;9.37;8.57;;;11.60;99.90;;;;;;4935962;29;20455;-77
2021/05/16 00:08:04;;;;;;;9.57;8.20;;;11.50;99.90;;;;;;4936176;29;20563;-78
2021/05/16 00:10:31;;;;;;;8.47;7.77;;;11.50;99.90;;;;;;4936975;29;20486;-77
2021/05/16 00:13:05;;;;;;;9.33;8.53;;;11.50;99.90;;;;;;4937323;29;20428;-77
2021/05/16 00:15:33;;;;;;;8.73;8.00;;;11.50;99.90;;;;;;4936676;29;20452;-78
2021/05/16 00:18:05;;;;;;;9.70;8.67;;;11.50;99.90;;;;;;4936806;29;20460;-78
2021/05/16 00:20:34;;;;;;;8.53;7.73;;;11.50;99.90;;;;;;4935573;29;20480;-77
2021/05/16 00:23:03;;;;;;;8.90;8.10;;;11.50;99.90;;;;;;4935138;29;20475;-78
2021/05/16 00:25:32;;;;;;;8.83;8.13;;;11.50;99.90;;;;;;4935218;29;20222;-78
2021/05/16 00:28:00;;;;;;;9.00;8.20;;;11.50;99.90;;;;;;4935535;29;20452;-78
2021/05/16 00:30:28;;;;;;;9.03;8.30;;;11.50;99.90;;;;;;4936477;29;20854;-78
2021/05/16 00:32:57;;;;;;;7.73;7.03;;;11.50;99.90;;;;;;4935613;29;20527;-78
2021/05/16 00:35:27;;;;;;;8.40;7.70;;;11.50;99.90;;;;;;4935493;29;20494;-78
2021/05/16 00:37:56;;;;;;;8.73;8.03;;;11.40;99.90;;;;;;4937246;29;20525;-78
2021/05/16 00:40:24;;;;;;;9.33;8.53;;;11.40;99.90;;;;;;4935243;29;20511;-78
2021/05/16 00:42:52;;;;;;;7.43;6.83;;;11.40;99.90;;;;;;4937155;29;20428;-77
2021/05/16 00:45:21;;;;;;;7.50;6.80;;;11.40;99.90;;;;;;4934791;29;20463;-77
2021/05/16 00:47:50;;;;;;;7.67;7.00;;;11.40;99.90;;;;;;4935153;29;20452;-78
2021/05/16 00:50:20;;;;;;;8.30;7.60;;;11.30;99.90;;;;;;4934938;29;20476;-77
2021/05/16 00:52:49;;;;;;;7.40;6.80;;;11.30;99.90;;;;;;4935178;29;20534;-78
2021/05/16 00:55:18;;;;;;;8.00;7.30;;;11.30;99.90;;;;;;4936393;29;20447;-78
2021/05/16 00:57:46;;;;;;;7.20;6.17;;;11.30;99.90;;;;;;4935157;29;20455;-78
2021/05/16 01:00:17;;;;;;;6.83;6.10;;;11.30;99.90;;;;;;4934283;29;20842;-77
2021/05/16 01:02:44;;;;;;;6.73;5.20;;;11.30;99.90;;;;;;4935032;29;20440;-77
2021/05/16 01:05:16;;;;;;;5.70;5.20;;;11.20;99.90;;;;;;4935645;29;20514;-77
2021/05/16 01:07:46;;;;;;;5.20;4.80;;;11.20;99.90;;;;;;4936344;29;20440;-77
2021/05/16 01:10:16;;;;;;;4.90;4.43;;;11.20;99.90;;;;;;4935015;29;20483;-77
2021/05/16 01:12:45;;;;;;;6.40;4.57;;;11.20;99.90;;;;;;4934954;29;20440;-77
2021/05/16 01:15:17;;;;;;;4.83;4.40;;;11.20;99.90;;;;;;4934954;29;20878;-77
2021/05/16 01:17:46;;;;;;;4.70;4.30;;;11.20;99.90;;;;;;4935994;29;20452;-77
2021/05/16 01:20:16;;;;;;;4.80;4.40;;;11.20;99.90;;;;;;4936266;29;20463;-77
2021/05/16 01:22:55;;;;;;;4.77;4.33;;;11.10;99.90;;;;;;4934620;29;20455;-77
2021/05/16 01:25:24;;;;;;;4.90;4.50;;;11.20;99.90;;;;;;4934784;29;20834;-77
2021/05/16 01:27:52;;;;;;;5.23;4.53;;;11.20;99.90;;;;;;4934783;29;20501;-77
2021/05/16 01:30:22;;;;;;;5.43;4.93;;;11.20;99.90;;;;;;4934547;29;20571;-77
2021/05/16 01:32:51;;;;;;;5.10;4.40;;;11.20;99.90;;;;;;4934657;29;20478;-77
2021/05/16 01:35:19;;;;;;;5.70;5.20;;;11.20;99.90;;;;;;4934528;29;20507;-77
2021/05/16 01:37:48;;;;;;;5.83;5.07;;;11.20;99.90;;;;;;4936909;29;20503;-77
2021/05/16 01:40:19;;;;;;;6.00;5.50;;;11.20;99.90;;;;;;4938343;29;20475;-77
2021/05/16 01:42:52;;;;;;;5.43;4.93;;;11.20;99.90;;;;;;4939196;29;20851;-77
2021/05/16 01:45:23;;;;;;;6.00;5.40;;;11.20;99.90;;;;;;4938337;29;20494;-77
2021/05/16 01:47:51;;;;;;;5.60;5.20;;;11.20;99.90;;;;;;4939341;29;20800;-77
2021/05/16 01:50:20;;;;;;;5.50;5.00;;;11.20;99.90;;;;;;4939387;29;20479;-76
2021/05/16 01:52:49;;;;;;;6.63;6.00;;;11.20;99.90;;;;;;4938231;29;20483;-76
2021/05/16 01:55:18;;;;;;;6.13;5.60;;;11.10;99.90;;;;;;4938191;29;20542;-77
2021/05/16 01:57:47;;;;;;;5.40;4.90;;;11.10;99.90;;;;;;4939852;29;20475;-77
2021/05/16 02:00:22;;;;;;;6.20;5.70;;;11.10;99.90;;;;;;4938111;29;20464;-77
2021/05/16 02:02:58;;;;;;;6.53;5.27;;;11.10;99.90;;;;;;4938067;29;20451;-77
2021/05/16 02:05:34;;;;;;;8.90;8.10;;;11.10;99.90;;;;;;4937991;29;20444;-77
2021/05/16 02:08:04;;;;;;;7.13;6.43;;;11.10;99.90;;;;;;4938005;29;20472;-77
2021/05/16 02:10:34;;;;;;;7.20;6.60;;;11.10;99.90;;;;;;4937963;29;20483;-77
2021/05/16 02:13:08;;;;;;;7.47;6.87;;;11.10;99.90;;;;;;4937928;29;20448;-77
2021/05/16 02:15:38;;;;;;;9.17;8.27;;;11.10;99.90;;;;;;4938157;29;20522;-77
2021/05/16 02:18:08;;;;;;;7.50;6.80;;;11.10;99.90;;;;;;4937633;29;20831;-77
2021/05/16 02:20:36;;;;;;;7.13;6.57;;;11.10;99.90;;;;;;4937681;29;20484;-77
2021/05/16 02:23:04;;;;;;;7.73;7.03;;;11.10;99.90;;;;;;4937694;29;20466;-77
2021/05/16 02:25:36;;;;;;;7.73;7.03;;;11.10;99.90;;;;;;4937973;29;20922;-77
2021/05/16 02:28:13;;;;;;;7.93;7.00;;;11.00;99.90;;;;;;4937935;29;20957;-77
2021/05/16 02:30:41;;;;;;;8.20;7.47;;;11.00;99.90;;;;;;4939031;29;20985;-77
2021/05/16 02:33:09;;;;;;;7.33;6.73;;;11.00;99.90;;;;;;4938801;29;20898;-77
2021/05/16 02:35:37;;;;;;;7.27;6.67;;;11.00;99.90;;;;;;4938453;29;20459;-77
2021/05/16 02:38:07;;;;;;;8.77;7.97;;;11.00;99.90;;;;;;4938951;29;20484;-77
2021/05/16 02:40:36;;;;;;;8.57;7.83;;;11.00;99.90;;;;;;4937240;29;20842;-77
2021/05/16 02:43:04;;;;;;;7.70;7.00;;;11.00;99.90;;;;;;4938808;29;20451;-77
2021/05/16 02:45:32;;;;;;;7.60;7.00;;;11.00;99.90;;;;;;4938687;29;20432;-77
2021/05/16 02:48:06;;;;;;;7.73;6.93;;;11.00;99.90;;;;;;4938407;29;20472;-77
2021/05/16 02:50:35;;;;;;;7.80;7.03;;;11.00;99.90;;;;;;4936959;29;20641;-78
2021/05/16 02:53:05;;;;;;;7.50;6.80;;;11.00;99.90;;;;;;4935093;29;20554;-77
2021/05/16 02:55:42;;;;;;;8.30;7.50;;;11.00;99.90;;;;;;4936995;29;20452;-77
2021/05/16 02:58:10;;;;;;;8.80;8.00;;;11.00;99.90;;;;;;4936102;29;20810;-77
2021/05/16 03:00:45;;;;;;;7.90;7.20;;;11.00;99.90;;;;;;4936956;29;20857;-77
2021/05/16 03:03:13;;;;;;;8.20;7.50;;;11.00;99.90;;;;;;4936935;29;20452;-77
2021/05/16 03:05:42;;;;;;;8.50;7.70;;;11.00;99.90;;;;;;4938083;29;20532;-77
2021/05/16 03:08:10;;;;;;;8.40;7.63;;;10.90;99.90;;;;;;4937297;29;20212;-77
2021/05/16 03:10:41;;;;;;;8.93;8.23;;;10.90;99.90;;;;;;4936655;29;20480;-77
2021/05/16 03:13:09;;;;;;;9.30;8.43;;;10.90;99.90;;;;;;4938037;29;20496;-77
2021/05/16 03:15:37;;;;;;;9.17;8.37;;;10.90;99.90;;;;;;4938037;29;20451;-77
2021/05/16 03:18:06;;;;;;;7.67;7.07;;;10.90;99.90;;;;;;4937891;29;20448;-77
2021/05/16 03:20:35;;;;;;;8.97;8.17;;;10.80;99.90;;;;;;4936559;29;20476;-77
2021/05/16 03:23:03;;;;;;;8.80;8.00;;;10.80;99.90;;;;;;4936219;29;20464;-77
2021/05/16 03:25:35;;;;;;;8.93;8.10;;;10.80;99.90;;;;;;4937095;29;21005;-77
2021/05/16 03:28:04;;;;;;;10.03;9.17;;;10.80;99.90;;;;;;4933464;29;20547;-77
2021/05/16 03:30:33;;;;;;;10.23;9.43;;;10.80;99.90;;;;;;4917372;29;20586;-77
2021/05/16 03:33:01;;;;;;;9.83;9.00;;;10.80;99.90;;;;;;4918287;29;20806;-77
2021/05/16 03:35:29;;;;;;;10.80;9.90;;;10.80;99.90;;;;;;4918648;29;20850;-77
2021/05/16 03:37:57;;;;;;;10.80;9.90;;;10.80;99.90;;;;;;4924312;29;20468;-77
2021/05/16 03:40:24;;;;;;;10.17;9.20;;;10.70;99.90;;;;;;4937609;29;20455;-77
2021/05/16 03:42:52;;;;;;;10.83;9.90;;;10.80;99.90;;;;;;4935450;29;20452;-77
2021/05/16 03:45:21;;;;;;;12.60;11.47;;;10.80;99.90;;;;;;4937382;29;20463;-77
2021/05/16 03:47:49;;;;;;;11.50;10.47;;;10.80;99.90;;;;;;4937771;29;20810;-77
2021/05/16 03:50:16;;;;;;;11.67;10.67;;;10.80;99.90;;;;;;4936020;29;20472;-77
2021/05/16 03:52:44;;;;;;;12.70;11.53;;;10.80;99.90;;;;;;4938047;29;20443;-77
2021/05/16 03:55:13;;;;;;;12.80;11.60;;;10.80;99.90;;;;;;4936065;29;20491;-77
2021/05/16 03:57:41;;;;;;;13.30;12.00;;;10.80;99.90;;;;;;4935981;29;20458;-77
2021/05/16 04:00:10;;;;;;;11.50;10.40;;;10.80;99.90;;;;;;4935353;29;20997;-77
2021/05/16 04:02:43;;;;;;;12.37;11.17;;;10.80;99.90;;;;;;4937322;29;20501;-77
2021/05/16 04:05:11;;;;;;;14.40;13.10;;;10.80;99.90;;;;;;4936192;29;20496;-78
2021/05/16 04:07:39;;;;;;;12.10;10.97;;;10.80;99.90;;;;;;4935928;29;20448;-78
2021/05/16 04:10:08;;;;;;;12.77;11.67;;;10.80;99.90;;;;;;4935685;29;20467;-77
2021/05/16 04:12:36;;;;;;;13.43;12.27;;;10.80;99.90;;;;;;4936700;29;21024;-77
2021/05/16 04:15:05;;;;;;;12.93;11.83;;;10.80;99.90;;;;;;4935937;29;20452;-77
2021/05/16 04:17:33;;;;;;;12.40;11.30;;;10.80;99.90;;;;;;4937502;29;20484;-77
2021/05/16 04:20:02;;;;;;;14.43;13.00;;;10.80;99.90;;;;;;4935905;29;20464;-77
2021/05/16 04:22:29;;;;;;;13.87;12.60;;;10.80;99.90;;;;;;4937265;29;20522;-77
2021/05/16 04:25:00;;;;;;;13.03;11.87;;;10.80;99.90;;;;;;4937125;29;20424;-77
2021/05/16 04:27:27;;;;;;;14.80;13.50;;;10.80;99.90;;;;;;4935957;29;20457;-77
2021/05/16 04:29:55;;;;;;;13.83;12.43;;;10.90;99.90;;;;;;4936595;29;20491;-77
2021/05/16 04:32:22;;;;;;;13.10;11.90;;;10.90;99.90;;;;;;4936568;29;20526;-77
2021/05/16 04:34:50;;;;;;;14.13;12.73;;;10.90;99.90;;;;;;4935396;29;20550;-78
2021/05/16 04:37:19;;;;;;;14.97;13.37;;;11.00;99.90;;;;;;4935384;29;20511;-78
2021/05/16 04:39:46;;;;;;;13.80;12.50;;;11.00;99.90;;;;;;4936748;29;20490;-77
2021/05/16 04:42:14;;;;;;;14.53;13.13;;;11.00;99.90;;;;;;4936726;29;20432;-77
2021/05/16 04:44:41;;;;;;;15.30;13.80;;;11.00;99.90;;;;;;4936645;29;20508;-77
2021/05/16 04:47:09;;;;;;;15.70;14.10;;;11.00;99.90;;;;;;4936629;29;20444;-77
2021/05/16 04:49:37;;;;;;;15.43;14.07;;;11.00;99.90;;;;;;4935027;29;20531;-77
2021/05/16 04:52:05;;;;;;;16.43;14.93;;;11.00;99.90;;;;;;4934214;29;20492;-77
2021/05/16 04:54:33;;;;;;;14.70;13.40;;;11.10;99.90;;;;;;4936301;29;20443;-77
2021/05/16 04:57:03;;;;;;;16.20;14.57;;;11.10;99.90;;;;;;4936646;29;20993;-77
2021/05/16 04:59:30;;;;;;;15.33;13.93;;;11.10;99.90;;;;;;4936301;29;20491;-77
2021/05/16 05:01:58;;;;;;;17.20;15.50;;;11.10;99.90;;;;;;4936830;29;20440;-77
2021/05/16 05:04:26;;;;;;;17.60;15.90;;;11.20;99.90;;;;;;4934955;29;20448;-77
2021/05/16 05:06:54;;;;;;;15.73;14.23;;;11.20;99.90;;;;;;4936228;29;20535;-77
2021/05/16 05:09:22;;;;;;;18.00;16.30;;;11.20;99.90;;;;;;4934798;29;21015;-77
2021/05/16 05:11:52;;;;;;;16.90;15.30;;;11.30;99.90;;;;;;4932690;29;20995;-77
2021/05/16 05:14:20;;;;;;;16.73;15.13;;;11.30;99.90;;;;;;4934706;29;20830;-77
2021/05/16 05:16:47;;;;;;;17.10;15.33;;;11.30;99.90;;;;;;4936024;29;20542;-77
2021/05/16 05:19:15;;;;;;;18.20;16.30;;;11.30;99.90;;;;;;4934765;29;20498;-77
2021/05/16 05:21:42;;;;;;;18.93;17.13;;;11.40;99.90;;;;;;4934744;29;20478;-77
2021/05/16 05:24:10;;;;;;;19.60;17.50;;;11.40;99.90;;;;;;4934848;29;20495;-77
2021/05/16 05:26:38;;;;;;;21.27;19.17;;;11.40;99.90;;;;;;4935014;29;20448;-77
2021/05/16 05:29:06;;;;;;;19.83;17.73;;;11.40;99.90;;;;;;4934792;29;20454;-77
2021/05/16 05:31:34;;;;;;;19.13;16.93;;;11.40;99.90;;;;;;4935930;29;21064;-77
2021/05/16 05:34:02;;;;;;;18.57;16.70;;;11.40;99.90;;;;;;4936158;29;20997;-77
2021/05/16 05:36:30;;;;;;;20.93;18.93;;;11.50;99.90;;;;;;4934587;29;20984;-77
2021/05/16 05:38:58;;;;;;;22.83;20.63;;;11.50;99.90;;;;;;4935272;29;20517;-77
2021/05/16 05:41:25;;;;;;;21.10;19.00;;;11.50;99.90;;;;;;4934373;29;20240;-77
2021/05/16 05:43:53;;;;;;;21.20;19.10;;;11.60;99.90;;;;;;4934567;29;20558;-77
2021/05/16 05:46:21;;;;;;;23.10;19.53;;;11.60;99.90;;;;;;4935807;29;20443;-77
2021/05/16 05:48:50;;;;;;;22.10;19.87;;;11.60;99.90;;;;;;4935836;29;20455;-77
2021/05/16 05:51:17;;;;;;;20.07;17.90;;;11.60;99.90;;;;;;4934924;29;20558;-77
2021/05/16 05:53:45;;;;;;;21.80;19.60;;;11.60;99.90;;;;;;4934473;29;20456;-77
2021/05/16 05:56:13;;;;;;;20.87;18.87;;;11.60;99.90;;;;;;4934789;29;20447;-77
2021/05/16 05:58:41;;;;;;;20.97;18.77;;;11.60;99.90;;;;;;4933967;29;20455;-77
2021/05/16 06:01:08;;;;;;;21.20;18.90;;;11.60;99.90;;;;;;4935719;29;20554;-77
2021/05/16 06:03:37;;;;;;;21.07;18.97;;;11.60;99.90;;;;;;4934521;29;20444;-77
2021/05/16 06:06:05;;;;;;;22.07;19.77;;;11.60;99.90;;;;;;4934382;29;20457;-77
2021/05/16 06:08:33;;;;;;;22.40;20.03;;;11.60;99.90;;;;;;4934325;29;20468;-77
2021/05/16 06:11:00;;;;;;;23.17;20.83;;;11.70;99.90;;;;;;4935551;29;20476;-77
2021/05/16 06:13:28;;;;;;;21.97;19.87;;;11.70;99.90;;;;;;4934556;29;20440;-77
2021/05/16 06:15:55;;;;;;;21.67;19.37;;;11.70;99.90;;;;;;4936024;29;20432;-78
2021/05/16 06:18:23;;;;;;;21.53;18.37;;;11.80;99.90;;;;;;4933843;29;20546;-77
2021/05/16 06:20:52;;;;;;;22.60;20.17;;;11.80;99.90;;;;;;4935596;29;21049;-77
2021/05/16 06:23:20;;;;;;;22.50;19.57;;;11.90;99.90;;;;;;4934453;29;20877;-77
2021/05/16 06:25:48;;;;;;;23.67;21.23;;;11.90;99.90;;;;;;4937708;29;20961;-77
2021/05/16 06:28:16;;;;;;;21.50;19.17;;;12.00;99.90;;;;;;4939039;29;20444;-77
2021/05/16 06:30:43;;;;;;;22.93;20.47;;;12.00;99.90;;;;;;4938907;29;20965;-77
2021/05/16 06:33:11;;;;;;;22.70;20.50;;;12.00;99.90;;;;;;4937581;29;20518;-77
2021/05/16 06:35:39;;;;;;;22.13;19.03;;;12.10;99.90;;;;;;4937899;29;20574;-77
2021/05/16 06:38:07;;;;;;;25.43;20.60;;;12.10;99.90;;;;;;4937508;29;20455;-77
2021/05/16 06:40:36;;;;;;;24.70;20.60;;;12.10;99.90;;;;;;4939148;29;20463;-77
2021/05/16 06:43:05;;;;;;;25.17;22.27;;;12.10;99.90;;;;;;4937504;29;20480;-77
2021/05/16 06:45:33;;;;;;;24.93;20.90;;;12.20;99.90;;;;;;4937474;29;20479;-78
2021/05/16 06:48:01;;;;;;;26.33;23.50;;;12.30;99.90;;;;;;4938169;29;20539;-77
2021/05/16 06:50:29;;;;;;;25.13;22.53;;;12.40;99.90;;;;;;4938612;29;20554;-77
2021/05/16 06:52:56;;;;;;;25.20;22.20;;;12.60;99.90;;;;;;4938483;29;20483;-78
2021/05/16 06:55:25;;;;;;;24.93;22.07;;;12.60;99.90;;;;;;4937271;29;20491;-78
2021/05/16 06:57:52;;;;;;;23.60;21.10;;;12.60;99.90;;;;;;4929815;29;20532;-77
2021/05/16 07:00:20;;;;;;;26.00;22.20;;;12.70;99.90;;;;;;4929494;29;20445;-77
2021/05/16 07:02:48;;;;;;;21.93;19.40;;;12.80;99.90;;;;;;4938238;29;20192;-77
2021/05/16 07:05:16;;;;;;;26.00;20.70;;;12.70;99.90;;;;;;4938478;29;20940;-77
2021/05/16 07:07:44;;;;;;;25.23;19.73;;;12.80;99.90;;;;;;4936958;29;20830;-78
2021/05/16 07:10:12;;;;;;;23.25;20.20;;;12.80;99.90;;;;;;4937866;29;20535;-78
2021/05/16 07:12:40;;;;;;;22.90;18.97;;;12.80;99.90;;;;;;4938715;29;20712;-78
2021/05/16 07:15:12;;;;;;;24.87;19.67;;;12.90;99.90;;;;;;4936924;29;20422;-78
2021/05/16 07:17:39;;;;;;;22.60;19.30;;;12.90;99.90;;;;;;4937870;29;20472;-77
2021/05/16 07:20:08;;;;;;;24.07;19.50;;;12.90;99.90;;;;;;4936821;29;20500;-77
2021/05/16 07:22:36;;;;;;;21.40;18.50;;;12.90;99.90;;;;;;4937993;29;20532;-77
2021/05/16 07:25:04;;;;;;;20.50;18.37;;;13.00;99.90;;;;;;4938062;29;20869;-77
2021/05/16 07:27:32;;;;;;;20.90;17.70;;;13.10;99.90;;;;;;4938482;29;20961;-77
2021/05/16 07:30:00;;;;;;;21.87;18.70;;;13.20;99.90;;;;;;4938676;29;20862;-78
2021/05/16 07:32:28;;;;;;;18.80;16.70;;;13.30;99.90;;;;;;4938024;29;20493;-78
2021/05/16 07:34:55;;;;;;;25.87;17.60;;;13.30;99.90;;;;;;4937690;29;20438;-78
2021/05/16 07:37:23;;;;;;;21.07;17.30;;;13.40;99.90;;;;;;4936427;29;20858;-77
2021/05/16 07:39:50;;;;;;;25.70;19.10;;;13.50;99.90;;;;;;4936472;29;20522;-77
2021/05/16 07:42:18;;;;;;;22.90;17.50;;;13.60;99.90;;;;;;4936069;29;20845;-78
2021/05/16 07:45:08;;;;;;;23.80;15.80;;;13.70;99.90;;;;;;4929898;29;20456;-77
2021/05/16 07:47:35;;;;;;;17.37;15.50;;;13.70;99.90;;;;;;4937148;29;20459;-78
2021/05/16 07:50:04;;;;;;;17.60;14.93;;;13.80;99.90;;;;;;4938232;29;20518;-78
2021/05/16 07:52:32;;;;;;;21.83;15.10;;;13.90;99.90;;;;;;4937751;29;20498;-78
2021/05/16 07:55:00;;;;;;;20.57;14.57;;;13.90;99.90;;;;;;4937101;29;20509;-78
2021/05/16 07:57:27;;;;;;;16.63;14.33;;;13.90;99.90;;;;;;4937395;29;20453;-78
2021/05/16 07:59:55;;;;;;;19.00;13.43;;;14.00;99.90;;;;;;4937457;29;20511;-78
2021/05/16 08:02:24;;;;;;;16.23;13.43;;;14.00;99.90;;;;;;4937566;29;20443;-78
2021/05/16 08:04:51;;;;;;;15.30;12.27;;;14.00;99.90;;;;;;4938580;29;20839;-78
2021/05/16 08:07:19;;;;;;;15.10;12.20;;;14.00;99.90;;;;;;4937310;29;20430;-78
2021/05/16 08:09:46;;;;;;;16.40;12.33;;;14.00;99.90;;;;;;4938980;29;20558;-78
2021/05/16 08:12:15;;;;;;;17.10;13.33;;;14.00;99.90;;;;;;4937165;29;20502;-78
2021/05/16 08:14:42;;;;;;;16.67;12.80;;;14.00;99.90;;;;;;4937169;29;20465;-78
2021/05/16 08:17:11;;;;;;;16.17;13.50;;;14.00;99.90;;;;;;4937233;29;20472;-78
2021/05/16 08:19:40;;;;;;;16.30;13.70;;;13.90;99.90;;;;;;4938480;29;20434;-78
2021/05/16 08:22:10;;;;;;;15.47;13.87;;;14.00;99.90;;;;;;4938611;29;20440;-78
2021/05/16 08:24:38;;;;;;;15.93;13.83;;;14.00;99.90;;;;;;4938266;29;20523;-80
2021/05/16 08:27:07;;;;;;;15.47;13.87;;;14.00;99.90;;;;;;4938634;29;20875;-79
2021/05/16 08:29:36;;;;;;;17.25;14.32;;;14.00;99.90;;;;;;4937573;29;20445;-78
2021/05/16 08:32:05;;;;;;;15.57;13.33;;;14.10;99.90;;;;;;4936863;29;20291;-78
2021/05/16 08:34:34;;;;;;;20.40;13.67;;;14.20;99.90;;;;;;4938498;28;20436;-78
2021/05/16 08:37:04;;;;;;;14.70;12.93;;;14.30;99.90;;;;;;4935271;29;20471;-78
2021/05/16 08:39:32;;;;;;;16.70;13.60;;;14.30;99.90;;;;;;4937747;29;20476;-78
2021/05/16 08:42:00;;;;;;;15.07;13.00;;;14.30;99.90;;;;;;4937531;29;20445;-78
2021/05/16 08:44:32;;;;;;;19.97;12.80;;;14.30;99.90;;;;;;4937737;29;20861;-78
2021/05/16 08:47:00;;;;;;;15.10;13.50;;;14.30;99.90;;;;;;4937226;29;20441;-78
2021/05/16 08:49:28;;;;;;;14.87;12.80;;;14.30;99.90;;;;;;4938801;29;21067;-78
2021/05/16 08:51:56;;;;;;;14.20;12.07;;;14.40;99.90;;;;;;4938395;29;20452;-78
2021/05/16 08:54:25;;;;;;;15.57;12.87;;;14.40;99.90;;;;;;4936918;29;20519;-78
2021/05/16 08:56:55;;;;;;;16.00;10.60;;;14.40;99.90;;;;;;4937041;29;20491;-78
2021/05/16 08:59:24;;;;;;;11.27;10.17;;;14.50;99.90;;;;;;4937214;29;20478;-78
2021/05/16 09:01:53;;;;;;;15.23;10.60;;;14.50;99.90;;;;;;4937177;29;20438;-78
2021/05/16 09:04:24;;;;;;;11.33;10.07;;;14.50;99.90;;;;;;4937472;29;20452;-78
2021/05/16 09:06:56;;;;;;;17.90;12.43;;;14.50;99.90;;;;;;4937083;29;20415;-78
2021/05/16 09:09:26;;;;;;;15.50;11.20;;;14.60;99.90;;;;;;4938441;29;21012;-78
2021/05/16 09:11:59;;;;;;;12.77;10.33;;;14.60;99.90;;;;;;4937413;29;20456;-78
2021/05/16 09:14:41;;;;;;;13.27;10.77;;;14.60;99.90;;;;;;4937516;29;20767;-78
2021/05/16 09:17:24;;;;;;;14.93;10.40;;;14.50;99.90;;;;;;4937788;29;20457;-78
2021/05/16 09:19:53;;;;;;;12.30;9.80;;;14.50;99.90;;;;;;4937320;29;20566;-78
2021/05/16 09:22:39;;;;;;;13.27;11.07;;;14.60;99.90;;;;;;4936310;29;20894;-78
2021/05/16 09:25:13;;;;;;;13.57;11.13;;;14.60;99.90;;;;;;4936766;29;20444;-78
2021/05/16 09:27:42;;;;;;;13.50;10.63;;;14.70;99.90;;;;;;4937616;29;20433;-78
2021/05/16 09:30:24;;;;;;;12.83;10.00;;;14.80;99.90;;;;;;4938835;29;20455;-78
2021/05/16 09:32:54;;;;;;;16.50;9.47;;;14.80;99.90;;;;;;4939238;29;20434;-78
2021/05/16 09:35:37;;;;;;;14.77;9.70;;;14.80;99.90;;;;;;4938798;29;20479;-79
2021/05/16 09:38:13;;;;;;;11.10;9.00;;;14.80;99.90;;;;;;4938270;29;20419;-79
2021/05/16 09:40:44;;;;;;;11.87;9.30;;;14.80;99.90;;;;;;4937858;29;20441;-78
2021/05/16 09:43:15;;;;;;;11.83;8.90;;;14.90;99.90;;;;;;4939516;29;20434;-78
2021/05/16 09:45:58;;;;;;;12.43;9.43;;;14.90;99.90;;;;;;4943384;29;20444;-78
2021/05/16 09:48:37;;;;;;;14.80;9.50;;;14.90;99.90;;;;;;4942584;29;20499;-79
2021/05/16 09:51:17;;;;;;;8.57;7.73;;;14.90;99.90;;;;;;4942804;29;20524;-79
2021/05/16 09:53:56;;;;;;;11.50;8.40;;;14.90;99.90;;;;;;4940650;29;20446;-78
2021/05/16 09:56:27;;;;;;;10.83;8.27;;;14.80;99.90;;;;;;4939756;29;20517;-79
2021/05/16 09:58:56;;;;;;;10.77;8.90;;;14.80;99.90;;;;;;4938088;29;20436;-79
2021/05/16 10:01:26;;;;;;;13.97;9.77;;;14.80;99.90;;;;;;4942082;29;20438;-79
2021/05/16 10:03:54;;;;;;;12.57;9.70;;;14.70;99.90;;;;;;4940764;29;20557;-79
2021/05/16 10:06:23;;;;;;;13.50;9.93;;;14.70;99.90;;;;;;4940590;29;20440;-79
2021/05/16 10:08:51;;;;;;;19.77;10.90;;;14.60;99.90;;;;;;4941324;29;20419;-79
2021/05/16 10:11:21;;;;;;;18.60;10.27;;;14.60;99.90;;;;;;4940367;29;20443;-79
2021/05/16 10:13:54;;;;;;;16.33;9.80;;;14.60;99.90;;;;;;4941418;29;20574;-79
2021/05/16 10:16:22;;;;;;;14.60;11.80;;;14.50;99.90;;;;;;4941671;29;20431;-79
2021/05/16 10:18:52;;;;;;;13.97;11.67;;;14.50;99.90;;;;;;4943627;29;20462;-79
2021/05/16 10:21:24;;;;;;;13.60;10.00;;;14.40;99.90;;;;;;4943561;29;20996;-78
2021/05/16 10:24:08;;;;;;;14.90;12.07;;;14.40;99.90;;;;;;4939660;29;20427;-78
2021/05/16 10:26:36;;;;;;;12.33;10.70;;;14.40;99.90;;;;;;4938994;29;20466;-78
2021/05/16 10:29:07;;;;;;;16.37;11.27;;;14.40;99.90;;;;;;4940867;29;20855;-78
2021/05/16 10:31:43;;;;;;;15.50;10.80;;;14.40;99.90;;;;;;4941491;29;20432;-78
2021/05/16 10:34:38;;;;;;;14.40;10.90;;;14.40;99.90;;;;;;4940117;29;20475;-78
2021/05/16 10:37:07;;;;;;;13.87;12.47;;;14.30;99.90;;;;;;4939121;29;20434;-78
2021/05/16 10:39:53;;;;;;;14.17;11.30;;;14.30;99.90;;;;;;4941001;29;20462;-78
2021/05/16 10:42:23;;;;;;;15.83;10.83;;;14.40;99.90;;;;;;4941342;29;20820;-78
2021/05/16 10:45:01;;;;;;;12.87;11.27;;;14.40;99.90;;;;;;4940251;29;20470;-78
2021/05/16 10:48:07;;;;;;;13.90;12.20;;;14.50;99.90;;;;;;4940871;29;20498;-78
2021/05/16 10:50:57;;;;;;;15.90;12.40;;;14.70;99.90;;;;;;4929924;29;20479;-78
2021/05/16 10:53:44;;;;;;;17.87;12.20;;;15.00;99.90;;;;;;4938498;29;20530;-78
2021/05/16 10:56:22;;;;;;;12.87;10.57;;;15.20;99.90;;;;;;4930903;29;20435;-78
2021/05/16 10:58:57;;;;;;;14.27;11.40;;;15.30;99.90;;;;;;4938511;29;20440;-78
2021/05/16 11:01:33;;;;;;;16.40;13.03;;;15.50;99.90;;;;;;4937183;29;21004;-78
2021/05/16 11:04:02;;;;;;;17.10;12.17;;;15.60;99.90;;;;;;4937760;29;20475;-78
2021/05/16 11:06:55;;;;;;;15.80;11.10;;;15.80;99.90;;;;;;4938368;29;20415;-78
2021/05/16 11:09:27;;;;;;;13.97;11.67;;;16.10;99.90;;;;;;4928666;29;21024;-78
2021/05/16 11:11:56;;;;;;;9.93;8.70;;;16.20;99.90;;;;;;4938172;29;20426;-78
2021/05/16 11:14:31;;;;;;;11.77;9.13;;;16.20;99.90;;;;;;4938102;29;20514;-78
2021/05/16 11:17:02;;;;;;;13.30;9.23;;;16.20;99.90;;;;;;4937017;29;20516;-78
2021/05/16 11:19:32;;;;;;;12.83;8.53;;;16.20;99.90;;;;;;4936914;29;20476;-78
2021/05/16 11:22:11;;;;;;;8.40;7.10;;;16.10;99.90;;;;;;4938480;29;20455;-78
2021/05/16 11:27:35;;;;;;;9.40;6.60;;;16.00;99.90;;;;;;4161503;26;20502;-68
2021/05/16 11:30:07;;;;;;;6.67;5.97;;;16.00;99.90;;;;;;4937978;29;20963;-68
2021/05/16 11:32:37;;;;;;;8.67;5.53;;;15.90;99.90;;;;;;4936644;29;20484;-68
2021/05/16 11:35:16;;;;;;;10.47;5.73;;;15.90;99.90;;;;;;4938112;29;20460;-68
2021/05/16 11:37:48;;;;;;;8.30;6.40;;;15.90;99.90;;;;;;4938282;29;20747;-68
2021/05/16 11:40:18;;;;;;;6.97;5.83;;;15.90;99.90;;;;;;4936585;29;20476;-68
2021/05/16 11:42:46;;;;;;;9.17;6.00;;;15.90;99.90;;;;;;4936475;29;20944;-68
2021/05/16 11:45:16;;;;;;;7.97;7.20;;;15.90;99.90;;;;;;4923378;29;20567;-68
2021/05/16 11:47:45;;;;;;;12.67;7.23;;;15.90;99.90;;;;;;4921626;29;20447;-68
2021/05/16 11:50:13;;;;;;;10.90;6.20;;;15.90;99.90;;;;;;4945050;23;20872;-68
2021/05/16 11:52:41;;;;;;;7.70;6.90;;;16.00;99.90;;;;;;4936261;29;20432;-68
2021/05/16 11:55:11;;;;;;;10.00;7.17;;;15.90;99.90;;;;;;4937345;29;20487;-68
2021/05/16 11:57:43;;;;;;;8.73;7.77;;;16.00;99.90;;;;;;4937994;29;20491;-68
2021/05/16 12:00:13;;;;;;;11.45;8.00;;;15.90;99.90;;;;;;4936615;29;20473;-68
2021/05/16 12:02:42;;;;;;;14.30;8.07;;;15.90;99.90;;;;;;4937454;29;20291;-68
2021/05/16 12:05:25;;;;;;;10.40;7.20;;;15.90;99.90;;;;;;4936014;29;20821;-68
2021/05/16 12:07:53;;;;;;;10.77;8.13;;;15.90;99.90;;;;;;4946524;23;20527;-68
2021/05/16 12:10:21;;;;;;;12.07;8.00;;;16.00;99.90;;;;;;4955872;28;20780;-68
2021/05/16 12:12:48;;;;;;;14.17;8.70;;;16.10;99.90;;;;;;4956264;28;20278;-67
2021/05/16 12:15:24;;;;;;;10.40;8.57;;;16.20;99.90;;;;;;4943045;28;20569;-67
2021/05/16 12:17:51;;;;;;;15.17;8.50;;;16.30;99.90;;;;;;4920946;29;20464;-68
2021/05/16 12:20:24;;;;;;;11.03;6.97;;;16.30;99.90;;;;;;4916770;29;20485;-67
2021/05/16 12:22:52;;;;;;;10.53;7.97;;;16.40;99.90;;;;;;4917490;29;20399;-67
2021/05/16 12:25:27;;;;;;;10.27;7.40;;;16.40;99.90;;;;;;4918239;29;20456;-67
2021/05/16 12:27:57;;;;;;;12.97;8.10;;;16.30;99.90;;;;;;4917981;29;20428;-68
2021/05/16 12:30:26;;;;;;;13.00;7.87;;;16.30;99.90;;;;;;4923646;29;20452;-68
2021/05/16 12:32:54;;;;;;;6.60;5.90;;;16.20;99.90;;;;;;4935539;29;20440;-67
2021/05/16 12:35:21;;;;;;;5.43;4.00;;;16.10;99.90;;;;;;4936793;29;20501;-67
2021/05/16 12:37:50;;;;;;;4.83;4.13;;;16.10;99.90;;;;;;4937349;29;20424;-67
2021/05/16 12:40:24;;;;;;;6.07;4.60;;;16.10;99.90;;;;;;4936767;29;20531;-67
2021/05/16 12:43:02;;;;;;;8.07;5.63;;;16.10;99.90;;;;;;4937030;29;20442;-68
2021/05/16 12:45:31;;;;;;;10.67;7.03;;;16.20;99.90;;;;;;4936639;29;20470;-68
2021/05/16 12:48:00;;;;;;;10.30;7.80;;;16.30;99.90;;;;;;4932389;29;20460;-68
2021/05/16 12:50:30;;;;;;;9.80;6.37;;;16.30;99.90;;;;;;4928264;29;20503;-68
2021/05/16 12:53:23;;;;;;;12.40;7.20;;;16.40;99.90;;;;;;4935207;29;20432;-68